sensor_id;sensor_type;location;lat;lon;timestamp;pressure;altitude;pressure_sealevel;temperature;humidity
68656;BME280;55638;51.122;13.606;2023-07-08T00:01:25;100511.69;;;14.55;43.43
68656;BME280;55638;51.122;13.606;2023-07-08T00:02:57;100506.41;;;14.53;43.21
68656;BME280;55638;51.122;13.606;2023-07-08T00:04:29;100507.69;;;14.49;43.48
68656;BME280;55638;51.122;13.606;2023-07-08T00:06:01;100510.69;;;14.46;43.74
68656;BME280;55638;51.122;13.606;2023-07-08T00:07:33;100512.72;;;14.44;43.90
68656;BME280;55638;51.122;13.606;2023-07-08T00:09:10;100512.16;;;14.41;44.79
68656;BME280;55638;51.122;13.606;2023-07-08T00:10:43;100503.28;;;14.38;43.94
68656;BME280;55638;51.122;13.606;2023-07-08T00:12:15;100505.28;;;14.36;43.95
68656;BME280;55638;51.122;13.606;2023-07-08T00:13:47;100510.88;;;14.35;43.71
68656;BME280;55638;51.122;13.606;2023-07-08T00:15:25;100513.00;;;14.31;45.11
68656;BME280;55638;51.122;13.606;2023-07-08T00:16:58;100509.44;;;14.31;44.28
68656;BME280;55638;51.122;13.606;2023-07-08T00:18:30;100514.16;;;14.29;44.23
68656;BME280;55638;51.122;13.606;2023-07-08T00:20:10;100510.72;;;14.27;45.34
68656;BME280;55638;51.122;13.606;2023-07-08T00:21:43;100521.84;;;14.24;44.66
68656;BME280;55638;51.122;13.606;2023-07-08T00:23:15;100519.00;;;14.25;44.21
68656;BME280;55638;51.122;13.606;2023-07-08T00:24:47;100517.31;;;14.24;44.57
68656;BME280;55638;51.122;13.606;2023-07-08T00:26:23;100524.00;;;14.20;45.53
68656;BME280;55638;51.122;13.606;2023-07-08T00:27:56;100515.28;;;14.17;44.54
68656;BME280;55638;51.122;13.606;2023-07-08T00:29:29;100515.59;;;14.13;44.75
68656;BME280;55638;51.122;13.606;2023-07-08T00:31:01;100516.75;;;14.11;44.84
68656;BME280;55638;51.122;13.606;2023-07-08T00:32:34;100514.44;;;14.06;45.17
68656;BME280;55638;51.122;13.606;2023-07-08T00:34:05;100509.31;;;14.03;45.09
68656;BME280;55638;51.122;13.606;2023-07-08T00:35:39;100515.03;;;14.00;45.34
68656;BME280;55638;51.122;13.606;2023-07-08T00:37:12;100520.72;;;13.97;45.33
68656;BME280;55638;51.122;13.606;2023-07-08T00:38:44;100523.72;;;13.94;45.37
68656;BME280;55638;51.122;13.606;2023-07-08T00:40:19;100520.31;;;13.92;45.83
68656;BME280;55638;51.122;13.606;2023-07-08T00:41:52;100514.16;;;13.90;45.80
68656;BME280;55638;51.122;13.606;2023-07-08T00:43:54;100515.56;;;13.84;48.16
68656;BME280;55638;51.122;13.606;2023-07-08T00:45:46;100520.72;;;13.87;47.54
68656;BME280;55638;51.122;13.606;2023-07-08T00:47:33;100520.16;;;13.94;46.42
68656;BME280;55638;51.122;13.606;2023-07-08T00:50:40;100523.59;;;14.05;46.66
68656;BME280;55638;51.122;13.606;2023-07-08T00:52:25;100526.44;;;14.13;46.90
68656;BME280;55638;51.122;13.606;2023-07-08T00:53:57;100528.28;;;14.23;46.81
68656;BME280;55638;51.122;13.606;2023-07-08T00:55:29;100523.84;;;14.31;47.11
68656;BME280;55638;51.122;13.606;2023-07-08T00:57:02;100513.69;;;14.43;46.92
68656;BME280;55638;51.122;13.606;2023-07-08T00:58:40;100521.81;;;14.53;47.44
68656;BME280;55638;51.122;13.606;2023-07-08T01:00:15;100514.53;;;14.63;47.15
68656;BME280;55638;51.122;13.606;2023-07-08T01:01:50;100518.78;;;14.75;46.38
68656;BME280;55638;51.122;13.606;2023-07-08T01:03:24;100516.03;;;14.85;45.98
68656;BME280;55638;51.122;13.606;2023-07-08T01:05:07;100508.88;;;14.94;46.04
68656;BME280;55638;51.122;13.606;2023-07-08T01:06:46;100514.44;;;15.02;46.09
68656;BME280;55638;51.122;13.606;2023-07-08T01:08:19;100507.09;;;15.12;45.46
68656;BME280;55638;51.122;13.606;2023-07-08T01:10:09;100510.06;;;15.19;45.71
68656;BME280;55638;51.122;13.606;2023-07-08T01:11:44;100511.00;;;15.27;44.97
68656;BME280;55638;51.122;13.606;2023-07-08T01:13:17;100509.41;;;15.35;44.97
68656;BME280;55638;51.122;13.606;2023-07-08T01:14:51;100511.50;;;15.41;45.18
68656;BME280;55638;51.122;13.606;2023-07-08T01:16:25;100511.06;;;15.45;44.88
68656;BME280;55638;51.122;13.606;2023-07-08T01:17:57;100514.03;;;15.52;44.47
68656;BME280;55638;51.122;13.606;2023-07-08T01:19:30;100513.44;;;15.58;44.58
68656;BME280;55638;51.122;13.606;2023-07-08T01:21:38;100516.84;;;15.60;44.79
68656;BME280;55638;51.122;13.606;2023-07-08T01:23:10;100505.22;;;15.68;44.19
68656;BME280;55638;51.122;13.606;2023-07-08T01:24:44;100511.03;;;15.73;44.07
68656;BME280;55638;51.122;13.606;2023-07-08T01:26:17;100514.16;;;15.78;43.83
68656;BME280;55638;51.122;13.606;2023-07-08T01:27:52;100509.56;;;15.78;44.14
68656;BME280;55638;51.122;13.606;2023-07-08T01:29:25;100507.38;;;15.82;44.00
68656;BME280;55638;51.122;13.606;2023-07-08T01:30:57;100503.69;;;15.83;43.92
68656;BME280;55638;51.122;13.606;2023-07-08T01:32:31;100505.22;;;15.86;43.71
68656;BME280;55638;51.122;13.606;2023-07-08T01:34:08;100496.06;;;15.87;43.94
68656;BME280;55638;51.122;13.606;2023-07-08T01:35:42;100494.03;;;15.89;43.62
68656;BME280;55638;51.122;13.606;2023-07-08T01:37:14;100485.75;;;15.90;43.48
68656;BME280;55638;51.122;13.606;2023-07-08T01:38:46;100492.16;;;15.89;43.74
68656;BME280;55638;51.122;13.606;2023-07-08T01:41:58;100492.88;;;15.91;43.53
68656;BME280;55638;51.122;13.606;2023-07-08T01:43:30;100487.44;;;15.91;43.42
68656;BME280;55638;51.122;13.606;2023-07-08T01:45:13;100497.59;;;15.89;44.21
68656;BME280;55638;51.122;13.606;2023-07-08T01:46:45;100486.59;;;15.91;43.14
68656;BME280;55638;51.122;13.606;2023-07-08T01:48:22;100494.75;;;15.91;43.30
68656;BME280;55638;51.122;13.606;2023-07-08T01:49:54;100492.75;;;15.93;43.38
68656;BME280;55638;51.122;13.606;2023-07-08T01:51:27;100490.88;;;15.93;43.20
68656;BME280;55638;51.122;13.606;2023-07-08T01:53:03;100493.59;;;15.93;43.60
68656;BME280;55638;51.122;13.606;2023-07-08T01:54:38;100496.97;;;15.95;43.01
68656;BME280;55638;51.122;13.606;2023-07-08T01:56:11;100495.13;;;15.96;42.93
68656;BME280;55638;51.122;13.606;2023-07-08T01:57:43;100483.38;;;15.95;42.89
68656;BME280;55638;51.122;13.606;2023-07-08T01:59:15;100487.97;;;15.95;43.10
68656;BME280;55638;51.122;13.606;2023-07-08T02:00:47;100491.72;;;15.94;42.82
68656;BME280;55638;51.122;13.606;2023-07-08T02:02:20;100480.97;;;15.92;43.10
68656;BME280;55638;51.122;13.606;2023-07-08T02:03:53;100489.00;;;15.94;42.96
68656;BME280;55638;51.122;13.606;2023-07-08T02:05:25;100483.69;;;15.92;42.91
68656;BME280;55638;51.122;13.606;2023-07-08T02:06:59;100481.16;;;15.91;43.02
68656;BME280;55638;51.122;13.606;2023-07-08T02:08:31;100477.72;;;15.89;43.02
68656;BME280;55638;51.122;13.606;2023-07-08T02:10:04;100480.59;;;15.87;43.15
68656;BME280;55638;51.122;13.606;2023-07-08T02:11:37;100481.47;;;15.88;42.81
68656;BME280;55638;51.122;13.606;2023-07-08T02:13:09;100479.75;;;15.87;42.86
68656;BME280;55638;51.122;13.606;2023-07-08T02:14:41;100486.19;;;15.86;42.93
68656;BME280;55638;51.122;13.606;2023-07-08T02:16:13;100486.03;;;15.87;42.77
68656;BME280;55638;51.122;13.606;2023-07-08T02:17:45;100487.03;;;15.86;42.91
68656;BME280;55638;51.122;13.606;2023-07-08T02:19:18;100489.94;;;15.85;42.89
68656;BME280;55638;51.122;13.606;2023-07-08T02:20:51;100482.94;;;15.82;43.14
68656;BME280;55638;51.122;13.606;2023-07-08T02:22:23;100479.22;;;15.83;43.15
68656;BME280;55638;51.122;13.606;2023-07-08T02:23:55;100480.22;;;15.82;43.14
68656;BME280;55638;51.122;13.606;2023-07-08T02:25:27;100473.78;;;15.83;42.83
68656;BME280;55638;51.122;13.606;2023-07-08T02:27:00;100478.50;;;15.81;43.00
68656;BME280;55638;51.122;13.606;2023-07-08T02:28:32;100468.66;;;15.80;43.23
68656;BME280;55638;51.122;13.606;2023-07-08T02:30:04;100470.50;;;15.80;43.00
68656;BME280;55638;51.122;13.606;2023-07-08T02:31:38;100465.22;;;15.78;43.47
68656;BME280;55638;51.122;13.606;2023-07-08T02:33:09;100464.38;;;15.77;43.05
68656;BME280;55638;51.122;13.606;2023-07-08T02:34:41;100466.25;;;15.77;42.97
68656;BME280;55638;51.122;13.606;2023-07-08T02:36:13;100467.25;;;15.76;43.32
68656;BME280;55638;51.122;13.606;2023-07-08T02:37:45;100469.28;;;15.74;43.09
68656;BME280;55638;51.122;13.606;2023-07-08T02:39:17;100474.31;;;15.69;43.16
68656;BME280;55638;51.122;13.606;2023-07-08T02:40:49;100467.31;;;15.66;43.24
68656;BME280;55638;51.122;13.606;2023-07-08T02:42:21;100470.34;;;15.63;43.40
68656;BME280;55638;51.122;13.606;2023-07-08T02:43:52;100468.63;;;15.62;43.19
68656;BME280;55638;51.122;13.606;2023-07-08T02:45:24;100474.25;;;15.61;43.58
68656;BME280;55638;51.122;13.606;2023-07-08T02:46:57;100475.09;;;15.61;43.21
68656;BME280;55638;51.122;13.606;2023-07-08T02:48:29;100468.81;;;15.61;43.27
68656;BME280;55638;51.122;13.606;2023-07-08T02:50:01;100467.94;;;15.60;43.45
68656;BME280;55638;51.122;13.606;2023-07-08T02:51:33;100473.38;;;15.60;43.21
68656;BME280;55638;51.122;13.606;2023-07-08T02:53:05;100470.66;;;15.60;43.42
68656;BME280;55638;51.122;13.606;2023-07-08T02:54:37;100467.06;;;15.60;43.21
68656;BME280;55638;51.122;13.606;2023-07-08T02:56:09;100469.78;;;15.60;43.53
68656;BME280;55638;51.122;13.606;2023-07-08T02:57:41;100467.25;;;15.58;43.36
68656;BME280;55638;51.122;13.606;2023-07-08T02:59:13;100477.28;;;15.58;43.32
68656;BME280;55638;51.122;13.606;2023-07-08T03:00:45;100479.28;;;15.56;43.45
68656;BME280;55638;51.122;13.606;2023-07-08T03:02:16;100474.00;;;15.54;43.36
68656;BME280;55638;51.122;13.606;2023-07-08T03:03:48;100469.72;;;15.51;43.73
68656;BME280;55638;51.122;13.606;2023-07-08T03:05:21;100474.16;;;15.52;43.67
68656;BME280;55638;51.122;13.606;2023-07-08T03:06:53;100470.00;;;15.48;43.69
68656;BME280;55638;51.122;13.606;2023-07-08T03:08:26;100471.69;;;15.49;43.66
68656;BME280;55638;51.122;13.606;2023-07-08T03:09:58;100472.00;;;15.46;43.58
68656;BME280;55638;51.122;13.606;2023-07-08T03:11:30;100467.41;;;15.47;43.60
68656;BME280;55638;51.122;13.606;2023-07-08T03:13:02;100471.16;;;15.46;43.61
68656;BME280;55638;51.122;13.606;2023-07-08T03:14:35;100475.72;;;15.45;43.76
68656;BME280;55638;51.122;13.606;2023-07-08T03:16:08;100468.59;;;15.44;43.71
68656;BME280;55638;51.122;13.606;2023-07-08T03:17:44;100466.75;;;15.45;43.86
68656;BME280;55638;51.122;13.606;2023-07-08T03:19:17;100463.19;;;15.44;43.75
68656;BME280;55638;51.122;13.606;2023-07-08T03:20:49;100466.03;;;15.43;43.66
68656;BME280;55638;51.122;13.606;2023-07-08T03:22:21;100475.03;;;15.43;43.64
68656;BME280;55638;51.122;13.606;2023-07-08T03:23:53;100467.72;;;15.44;43.91
68656;BME280;55638;51.122;13.606;2023-07-08T03:25:25;100470.59;;;15.42;44.21
68656;BME280;55638;51.122;13.606;2023-07-08T03:26:57;100473.16;;;15.44;43.95
68656;BME280;55638;51.122;13.606;2023-07-08T03:28:31;100464.88;;;15.45;43.88
68656;BME280;55638;51.122;13.606;2023-07-08T03:30:04;100470.31;;;15.45;44.11
68656;BME280;55638;51.122;13.606;2023-07-08T03:31:38;100473.03;;;15.45;44.18
68656;BME280;55638;51.122;13.606;2023-07-08T03:33:12;100473.03;;;15.45;43.96
68656;BME280;55638;51.122;13.606;2023-07-08T03:34:45;100467.59;;;15.45;44.16
68656;BME280;55638;51.122;13.606;2023-07-08T03:36:18;100475.72;;;15.45;44.16
68656;BME280;55638;51.122;13.606;2023-07-08T03:37:57;100478.28;;;15.47;43.91
68656;BME280;55638;51.122;13.606;2023-07-08T03:39:28;100477.44;;;15.46;44.20
68656;BME280;55638;51.122;13.606;2023-07-08T03:41:01;100477.31;;;15.48;44.08
68656;BME280;55638;51.122;13.606;2023-07-08T03:42:33;100477.13;;;15.49;44.15
68656;BME280;55638;51.122;13.606;2023-07-08T03:44:06;100473.41;;;15.50;44.21
68656;BME280;55638;51.122;13.606;2023-07-08T03:45:38;100477.03;;;15.51;43.98
68656;BME280;55638;51.122;13.606;2023-07-08T03:47:12;100471.44;;;15.52;44.15
68656;BME280;55638;51.122;13.606;2023-07-08T03:48:44;100475.84;;;15.53;44.12
68656;BME280;55638;51.122;13.606;2023-07-08T03:50:24;100480.44;;;15.53;44.85
68656;BME280;55638;51.122;13.606;2023-07-08T03:51:56;100475.84;;;15.53;44.18
68656;BME280;55638;51.122;13.606;2023-07-08T03:53:28;100481.13;;;15.55;44.17
68656;BME280;55638;51.122;13.606;2023-07-08T03:55:01;100478.25;;;15.57;43.94
68656;BME280;55638;51.122;13.606;2023-07-08T03:56:33;100479.09;;;15.57;43.99
68656;BME280;55638;51.122;13.606;2023-07-08T03:58:06;100470.81;;;15.59;44.00
68656;BME280;55638;51.122;13.606;2023-07-08T03:59:39;100475.09;;;15.61;44.24
68656;BME280;55638;51.122;13.606;2023-07-08T04:01:14;100478.66;;;15.62;44.16
68656;BME280;55638;51.122;13.606;2023-07-08T04:02:48;100484.09;;;15.62;44.27
68656;BME280;55638;51.122;13.606;2023-07-08T04:04:24;100472.91;;;15.65;43.93
68656;BME280;55638;51.122;13.606;2023-07-08T04:05:56;100470.88;;;15.67;43.87
68656;BME280;55638;51.122;13.606;2023-07-08T04:07:28;100474.63;;;15.66;44.30
68656;BME280;55638;51.122;13.606;2023-07-08T04:09:00;100470.88;;;15.67;44.04
68656;BME280;55638;51.122;13.606;2023-07-08T04:10:32;100475.03;;;15.71;44.02
68656;BME280;55638;51.122;13.606;2023-07-08T04:12:04;100467.84;;;15.70;43.99
68656;BME280;55638;51.122;13.606;2023-07-08T04:13:36;100470.25;;;15.73;43.91
68656;BME280;55638;51.122;13.606;2023-07-08T04:15:09;100479.84;;;15.77;43.90
68656;BME280;55638;51.122;13.606;2023-07-08T04:16:48;100481.69;;;15.76;44.39
68656;BME280;55638;51.122;13.606;2023-07-08T04:18:23;100476.81;;;15.80;44.02
68656;BME280;55638;51.122;13.606;2023-07-08T04:19:55;100475.78;;;15.81;44.13
68656;BME280;55638;51.122;13.606;2023-07-08T04:21:28;100477.50;;;15.82;44.20
68656;BME280;55638;51.122;13.606;2023-07-08T04:23:01;100477.19;;;15.85;44.35
68656;BME280;55638;51.122;13.606;2023-07-08T04:24:33;100472.59;;;15.86;43.97
68656;BME280;55638;51.122;13.606;2023-07-08T04:26:05;100478.88;;;15.86;44.20
68656;BME280;55638;51.122;13.606;2023-07-08T04:27:40;100474.16;;;15.88;44.14
68656;BME280;55638;51.122;13.606;2023-07-08T04:29:14;100472.16;;;15.90;44.12
68656;BME280;55638;51.122;13.606;2023-07-08T04:30:47;100471.13;;;15.91;44.00
68656;BME280;55638;51.122;13.606;2023-07-08T04:32:19;100476.25;;;15.94;44.33
68656;BME280;55638;51.122;13.606;2023-07-08T04:33:51;100467.06;;;15.95;44.20
68656;BME280;55638;51.122;13.606;2023-07-08T04:35:23;100470.50;;;15.97;44.24
68656;BME280;55638;51.122;13.606;2023-07-08T04:36:55;100474.78;;;16.00;44.42
68656;BME280;55638;51.122;13.606;2023-07-08T04:38:27;100472.59;;;16.04;43.92
68656;BME280;55638;51.122;13.606;2023-07-08T04:39:59;100475.00;;;16.07;44.29
68656;BME280;55638;51.122;13.606;2023-07-08T04:41:32;100469.25;;;16.10;44.47
68656;BME280;55638;51.122;13.606;2023-07-08T04:43:04;100472.34;;;16.15;43.87
68656;BME280;55638;51.122;13.606;2023-07-08T04:44:36;100464.88;;;16.17;44.10
68656;BME280;55638;51.122;13.606;2023-07-08T04:46:23;100475.44;;;16.20;44.54
68656;BME280;55638;51.122;13.606;2023-07-08T04:47:57;100476.38;;;16.29;43.98
68656;BME280;55638;51.122;13.606;2023-07-08T04:49:29;100467.59;;;16.35;43.82
68656;BME280;55638;51.122;13.606;2023-07-08T04:51:03;100469.66;;;16.41;44.20
68656;BME280;55638;51.122;13.606;2023-07-08T04:52:35;100477.06;;;16.49;44.17
68656;BME280;55638;51.122;13.606;2023-07-08T04:54:07;100469.63;;;16.59;44.58
68656;BME280;55638;51.122;13.606;2023-07-08T04:55:42;100474.16;;;16.76;44.58
68656;BME280;55638;51.122;13.606;2023-07-08T04:57:15;100473.19;;;16.93;45.22
68656;BME280;55638;51.122;13.606;2023-07-08T04:58:48;100475.53;;;17.14;44.84
68656;BME280;55638;51.122;13.606;2023-07-08T05:00:20;100477.50;;;17.38;44.72
68656;BME280;55638;51.122;13.606;2023-07-08T05:01:52;100477.25;;;17.66;44.54
68656;BME280;55638;51.122;13.606;2023-07-08T05:03:25;100479.53;;;17.95;44.26
68656;BME280;55638;51.122;13.606;2023-07-08T05:04:57;100469.44;;;18.28;43.71
68656;BME280;55638;51.122;13.606;2023-07-08T05:06:29;100480.16;;;18.63;43.41
68656;BME280;55638;51.122;13.606;2023-07-08T05:08:00;100468.50;;;18.93;42.62
68656;BME280;55638;51.122;13.606;2023-07-08T05:09:32;100471.91;;;19.26;42.38
68656;BME280;55638;51.122;13.606;2023-07-08T05:11:04;100480.47;;;19.63;41.91
68656;BME280;55638;51.122;13.606;2023-07-08T05:12:36;100480.22;;;19.95;41.44
68656;BME280;55638;51.122;13.606;2023-07-08T05:14:08;100477.44;;;20.27;40.66
68656;BME280;55638;51.122;13.606;2023-07-08T05:15:40;100475.44;;;20.58;40.27
68656;BME280;55638;51.122;13.606;2023-07-08T05:17:12;100474.06;;;20.92;40.17
68656;BME280;55638;51.122;13.606;2023-07-08T05:18:45;100477.59;;;21.22;39.40
68656;BME280;55638;51.122;13.606;2023-07-08T05:20:17;100475.03;;;21.50;38.90
68656;BME280;55638;51.122;13.606;2023-07-08T05:21:50;100488.47;;;21.82;38.42
68656;BME280;55638;51.122;13.606;2023-07-08T05:23:22;100484.28;;;22.07;37.56
68656;BME280;55638;51.122;13.606;2023-07-08T05:24:54;100484.34;;;22.35;37.14
68656;BME280;55638;51.122;13.606;2023-07-08T05:26:29;100479.06;;;22.62;37.00
68656;BME280;55638;51.122;13.606;2023-07-08T05:28:01;100478.63;;;22.86;36.89
68656;BME280;55638;51.122;13.606;2023-07-08T05:29:33;100472.41;;;23.06;36.19
68656;BME280;55638;51.122;13.606;2023-07-08T05:31:05;100478.63;;;23.28;35.81
68656;BME280;55638;51.122;13.606;2023-07-08T05:32:37;100481.28;;;23.49;35.56
68656;BME280;55638;51.122;13.606;2023-07-08T05:34:09;100478.56;;;23.69;35.30
68656;BME280;55638;51.122;13.606;2023-07-08T05:35:41;100483.09;;;23.90;35.04
68656;BME280;55638;51.122;13.606;2023-07-08T05:37:14;100478.69;;;24.09;34.79
68656;BME280;55638;51.122;13.606;2023-07-08T05:38:46;100486.13;;;24.28;34.33
68656;BME280;55638;51.122;13.606;2023-07-08T05:40:18;100490.78;;;24.48;34.32
68656;BME280;55638;51.122;13.606;2023-07-08T05:41:49;100490.97;;;24.66;34.13
68656;BME280;55638;51.122;13.606;2023-07-08T05:43:21;100487.34;;;24.86;33.86
68656;BME280;55638;51.122;13.606;2023-07-08T05:44:53;100486.44;;;25.05;33.51
68656;BME280;55638;51.122;13.606;2023-07-08T05:46:26;100480.03;;;25.24;33.37
68656;BME280;55638;51.122;13.606;2023-07-08T05:47:58;100482.72;;;25.44;33.31
68656;BME280;55638;51.122;13.606;2023-07-08T05:49:30;100483.69;;;25.63;33.25
68656;BME280;55638;51.122;13.606;2023-07-08T05:51:02;100484.88;;;25.81;32.82
68656;BME280;55638;51.122;13.606;2023-07-08T05:52:34;100490.50;;;25.99;32.58
68656;BME280;55638;51.122;13.606;2023-07-08T05:54:06;100492.72;;;26.15;32.47
68656;BME280;55638;51.122;13.606;2023-07-08T05:55:39;100493.88;;;26.33;32.27
68656;BME280;55638;51.122;13.606;2023-07-08T05:57:14;100497.59;;;26.45;31.70
68656;BME280;55638;51.122;13.606;2023-07-08T05:58:46;100490.00;;;26.65;31.76
68656;BME280;55638;51.122;13.606;2023-07-08T06:00:17;100492.63;;;26.79;31.66
68656;BME280;55638;51.122;13.606;2023-07-08T06:02:10;100492.44;;;26.99;31.08
68656;BME280;55638;51.122;13.606;2023-07-08T06:03:42;100489.91;;;27.16;31.25
68656;BME280;55638;51.122;13.606;2023-07-08T06:05:14;100499.25;;;27.33;30.63
68656;BME280;55638;51.122;13.606;2023-07-08T06:06:46;100495.28;;;27.47;30.60
68656;BME280;55638;51.122;13.606;2023-07-08T06:08:18;100499.72;;;27.67;30.39
68656;BME280;55638;51.122;13.606;2023-07-08T06:09:50;100490.97;;;27.81;30.19
68656;BME280;55638;51.122;13.606;2023-07-08T06:11:22;100493.34;;;27.96;29.66
68656;BME280;55638;51.122;13.606;2023-07-08T06:12:54;100494.59;;;28.12;29.75
68656;BME280;55638;51.122;13.606;2023-07-08T06:14:27;100494.97;;;28.27;29.21
68656;BME280;55638;51.122;13.606;2023-07-08T06:15:59;100497.28;;;28.42;29.34
68656;BME280;55638;51.122;13.606;2023-07-08T06:17:31;100494.94;;;28.58;29.09
68656;BME280;55638;51.122;13.606;2023-07-08T06:19:03;100501.06;;;28.71;28.60
68656;BME280;55638;51.122;13.606;2023-07-08T06:20:35;100497.78;;;28.86;28.76
68656;BME280;55638;51.122;13.606;2023-07-08T06:22:07;100513.72;;;29.03;28.58
68656;BME280;55638;51.122;13.606;2023-07-08T06:23:59;100501.91;;;29.19;28.37
68656;BME280;55638;51.122;13.606;2023-07-08T06:25:32;100499.44;;;29.34;28.01
68656;BME280;55638;51.122;13.606;2023-07-08T06:27:04;100499.50;;;29.51;28.04
68656;BME280;55638;51.122;13.606;2023-07-08T06:28:36;100493.44;;;29.66;28.39
68656;BME280;55638;51.122;13.606;2023-07-08T06:30:08;100492.63;;;29.82;28.17
68656;BME280;55638;51.122;13.606;2023-07-08T06:31:40;100496.28;;;30.00;28.11
68656;BME280;55638;51.122;13.606;2023-07-08T06:33:12;100497.19;;;30.17;27.38
68656;BME280;55638;51.122;13.606;2023-07-08T06:34:44;100498.03;;;30.34;27.21
68656;BME280;55638;51.122;13.606;2023-07-08T06:36:16;100498.88;;;30.52;26.89
68656;BME280;55638;51.122;13.606;2023-07-08T06:37:48;100489.69;;;30.68;26.78
68656;BME280;55638;51.122;13.606;2023-07-08T06:39:20;100493.53;;;30.84;26.89
68656;BME280;55638;51.122;13.606;2023-07-08T06:40:52;100496.81;;;30.98;26.48
68656;BME280;55638;51.122;13.606;2023-07-08T06:42:25;100490.91;;;31.11;26.17
68656;BME280;55638;51.122;13.606;2023-07-08T06:44:13;100493.88;;;31.26;25.51
68656;BME280;55638;51.122;13.606;2023-07-08T06:45:45;100492.31;;;31.36;25.09
68656;BME280;55638;51.122;13.606;2023-07-08T06:47:18;100493.88;;;31.48;25.13
68656;BME280;55638;51.122;13.606;2023-07-08T06:48:51;100499.59;;;31.59;25.15
68656;BME280;55638;51.122;13.606;2023-07-08T06:50:25;100484.91;;;31.68;24.88
68656;BME280;55638;51.122;13.606;2023-07-08T06:51:57;100493.97;;;31.81;25.06
68656;BME280;55638;51.122;13.606;2023-07-08T06:53:31;100492.41;;;31.90;24.86
68656;BME280;55638;51.122;13.606;2023-07-08T06:55:06;100493.66;;;31.99;24.54
68656;BME280;55638;51.122;13.606;2023-07-08T06:56:39;100492.91;;;32.09;24.59
68656;BME280;55638;51.122;13.606;2023-07-08T06:58:11;100488.84;;;32.22;24.61
68656;BME280;55638;51.122;13.606;2023-07-08T06:59:44;100485.84;;;32.33;24.27
68656;BME280;55638;51.122;13.606;2023-07-08T07:01:15;100489.00;;;32.42;24.11
68656;BME280;55638;51.122;13.606;2023-07-08T07:02:47;100500.84;;;32.54;24.14
68656;BME280;55638;51.122;13.606;2023-07-08T07:04:19;100496.16;;;32.65;23.83
68656;BME280;55638;51.122;13.606;2023-07-08T07:05:51;100489.53;;;32.76;23.20
68656;BME280;55638;51.122;13.606;2023-07-08T07:07:23;100490.16;;;32.83;22.95
68656;BME280;55638;51.122;13.606;2023-07-08T07:08:55;100489.41;;;32.93;23.07
68656;BME280;55638;51.122;13.606;2023-07-08T07:10:27;100490.00;;;33.00;23.00
68656;BME280;55638;51.122;13.606;2023-07-08T07:11:59;100491.16;;;33.09;22.61
68656;BME280;55638;51.122;13.606;2023-07-08T07:13:31;100495.66;;;33.16;22.66
68656;BME280;55638;51.122;13.606;2023-07-08T07:15:05;100499.56;;;33.20;22.54
68656;BME280;55638;51.122;13.606;2023-07-08T07:16:37;100501.25;;;33.21;22.06
68656;BME280;55638;51.122;13.606;2023-07-08T07:18:09;100500.72;;;33.24;21.68
68656;BME280;55638;51.122;13.606;2023-07-08T07:19:41;100490.66;;;33.28;22.11
68656;BME280;55638;51.122;13.606;2023-07-08T07:21:13;100490.41;;;33.29;22.10
68656;BME280;55638;51.122;13.606;2023-07-08T07:22:45;100484.53;;;33.31;21.69
68656;BME280;55638;51.122;13.606;2023-07-08T07:24:17;100489.03;;;33.32;21.92
68656;BME280;55638;51.122;13.606;2023-07-08T07:25:50;100483.44;;;33.32;22.31
68656;BME280;55638;51.122;13.606;2023-07-08T07:27:22;100484.81;;;33.34;22.10
68656;BME280;55638;51.122;13.606;2023-07-08T07:28:54;100489.06;;;33.37;21.98
68656;BME280;55638;51.122;13.606;2023-07-08T07:30:25;100497.47;;;33.42;22.14
68656;BME280;55638;51.122;13.606;2023-07-08T07:31:57;100494.13;;;33.45;22.20
68656;BME280;55638;51.122;13.606;2023-07-08T07:33:30;100492.16;;;33.51;22.41
68656;BME280;55638;51.122;13.606;2023-07-08T07:35:02;100495.81;;;33.56;22.20
68656;BME280;55638;51.122;13.606;2023-07-08T07:36:34;100488.31;;;33.62;21.89
68656;BME280;55638;51.122;13.606;2023-07-08T07:38:06;100485.25;;;33.69;22.03
68656;BME280;55638;51.122;13.606;2023-07-08T07:39:38;100494.75;;;33.73;21.90
68656;BME280;55638;51.122;13.606;2023-07-08T07:41:10;100483.03;;;33.81;21.49
68656;BME280;55638;51.122;13.606;2023-07-08T07:42:44;100474.13;;;33.89;21.94
68656;BME280;55638;51.122;13.606;2023-07-08T07:44:16;100475.81;;;33.95;21.97
68656;BME280;55638;51.122;13.606;2023-07-08T07:45:52;100477.78;;;34.05;21.95
68656;BME280;55638;51.122;13.606;2023-07-08T07:47:24;100480.88;;;34.14;22.08
68656;BME280;55638;51.122;13.606;2023-07-08T07:48:58;100479.72;;;34.25;21.81
68656;BME280;55638;51.122;13.606;2023-07-08T07:50:31;100474.16;;;34.35;21.35
68656;BME280;55638;51.122;13.606;2023-07-08T07:52:03;100476.69;;;34.47;21.60
68656;BME280;55638;51.122;13.606;2023-07-08T07:53:36;100474.69;;;34.58;21.67
68656;BME280;55638;51.122;13.606;2023-07-08T07:55:09;100474.09;;;34.71;21.73
68656;BME280;55638;51.122;13.606;2023-07-08T07:56:41;100474.09;;;34.81;21.65
68656;BME280;55638;51.122;13.606;2023-07-08T07:58:12;100469.34;;;34.92;21.34
68656;BME280;55638;51.122;13.606;2023-07-08T07:59:46;100470.13;;;35.03;21.20
68656;BME280;55638;51.122;13.606;2023-07-08T08:01:18;100475.97;;;35.16;21.36
68656;BME280;55638;51.122;13.606;2023-07-08T08:02:51;100479.56;;;35.32;20.87
68656;BME280;55638;51.122;13.606;2023-07-08T08:04:23;100471.09;;;35.42;20.68
68656;BME280;55638;51.122;13.606;2023-07-08T08:05:55;100474.44;;;35.50;21.04